Time;durP1;ratioP1;P1;durP2;ratioP2;P2;SDS_P1;SDS_P2;PMS_P1;PMS_P2;Temp;Humidity;BMP_temperature;BMP_pressure;BME280_temperature;BME280_humidity;BME280_pressure;Samples;Min_cycle;Max_cycle;Signal;HPM_P1;HPM_P2
2021/04/21 00:02:01;;;;;;;;;;;;;;;-142.75;64.38;78232.03;5132814;27;20002;-73
2021/04/21 00:04:28;;;;;;;;;;;;;;;-142.75;64.34;78235.97;5114519;27;19938;-74
2021/04/21 00:06:55;;;;;;;;;;;;;;;-142.75;64.26;78234.00;5132878;27;19918;-73
2021/04/21 00:09:21;;;;;;;;;;;;;;;-142.75;64.47;78234.00;5132141;27;20300;-72
2021/04/21 00:11:48;;;;;;;;;;;;;;;-142.75;64.14;78232.03;5131935;27;20364;-73
2021/04/21 00:14:17;;;;;;;;;;;;;;;-142.75;64.39;78204.47;5113275;27;20404;-73
2021/04/21 00:16:44;;;;;;;;;;;;;;;-142.75;63.75;78212.34;5131927;27;20345;-73
2021/04/21 00:19:10;;;;;;;;;;;;;;;-142.75;64.44;78235.97;5113157;27;20296;-72
2021/04/21 00:21:35;;;;;;;;;;;;;;;-142.75;64.94;78239.91;5131351;27;19918;-73
2021/04/21 00:24:02;;;;;;;;;;;;;;;-142.75;65.48;78245.81;5131793;27;19911;-73
2021/04/21 00:26:27;;;;;;;;;;;;;;;-142.75;64.53;78251.72;5131773;27;20434;-73
2021/04/21 00:28:54;;;;;;;;;;;;;;;-142.75;64.27;78253.69;5131618;27;19916;-74
2021/04/21 00:31:19;;;;;;;;;;;;;;;-142.75;64.05;78255.66;5131590;27;19915;-73
2021/04/21 00:33:48;;;;;;;;;;;;;;;-142.75;64.41;78257.63;5131975;27;19911;-73
2021/04/21 00:36:15;;;;;;;;;;;;;;;-142.75;64.41;78257.63;5131471;27;19911;-73
2021/04/21 00:38:40;;;;;;;;;;;;;;;-142.75;64.50;78259.59;5131312;27;19919;-73
2021/04/21 00:41:08;;;;;;;;;;;;;;;-142.75;64.25;78253.69;5131361;27;19911;-74
2021/04/21 00:43:46;;;;;;;;;;;;;;;-142.75;64.04;78251.72;5130990;27;20410;-73
2021/04/21 00:46:11;;;;;;;;;;;;;;;-142.75;63.48;78259.59;5113144;27;19960;-74
2021/04/21 00:48:55;;;;;;;;;;;;;;;-142.75;64.06;78275.34;5131564;27;20006;-73
2021/04/21 00:51:39;;;;;;;;;;;;;;;-142.75;64.64;78283.22;5131205;27;19926;-72
2021/04/21 00:54:36;;;;;;;;;;;;;;;-142.75;64.57;78299.00;5131178;27;19925;-72
2021/04/21 00:57:10;;;;;;;;;;;;;;;-142.75;64.94;78299.00;5085612;28;20403;-73
2021/04/21 00:59:38;;;;;;;;;;;;;;;-142.75;65.32;78287.16;5112864;28;19956;-73
2021/04/21 01:02:06;;;;;;;;;;;;;;;-142.75;65.47;78302.94;5113207;28;19911;-73
2021/04/21 01:04:31;;;;;;;;;;;;;;;-142.75;65.47;78302.94;5130977;28;20453;-72
2021/04/21 01:06:57;;;;;;;;;;;;;;;-142.75;65.18;78306.88;5112445;28;19919;-74
2021/04/21 01:09:23;;;;;;;;;;;;;;;-142.75;65.59;78302.94;5131345;28;20357;-72
2021/04/21 01:12:01;;;;;;;;;;;;;;;-142.75;65.45;78295.06;5112370;28;19915;-72
2021/04/21 01:14:28;;;;;;;;;;;;;;;-142.75;65.14;78281.25;5131414;28;20280;-73
2021/04/21 01:16:56;;;;;;;;;;;;;;;-142.75;64.71;78281.25;5131073;28;19911;-73
2021/04/21 01:19:27;;;;;;;;;;;;;;;-142.75;64.88;78271.41;5131321;28;19918;-72
2021/04/21 01:21:54;;;;;;;;;;;;;;;-142.75;65.11;78283.22;5130762;28;20292;-73
2021/04/21 01:24:21;;;;;;;;;;;;;;;-142.75;64.41;78285.19;5131140;28;19915;-71
2021/04/21 01:27:07;;;;;;;;;;;;;;;-142.75;64.19;78285.19;5131134;28;19918;-73
2021/04/21 01:29:37;;;;;;;;;;;;;;;-142.75;64.57;78295.06;5112393;28;19959;-73
2021/04/21 01:32:10;;;;;;;;;;;;;;;-142.75;64.34;78302.94;5133514;27;19934;-73
2021/04/21 01:34:38;;;;;;;;;;;;;;;-142.75;64.85;78312.78;5116090;27;20450;-74
2021/04/21 01:37:04;;;;;;;;;;;;;;;-142.75;65.30;78316.72;5116595;27;19911;-73
2021/04/21 01:39:31;;;;;;;;;;;;;;;-142.75;65.57;78318.69;5116674;27;19919;-73
2021/04/21 01:41:57;;;;;;;;;;;;;;;-142.75;65.53;78308.84;5134578;27;19912;-72
2021/04/21 01:44:27;;;;;;;;;;;;;;;-142.75;65.44;78310.81;5116308;27;19975;-73
2021/04/21 01:47:00;;;;;;;;;;;;;;;-142.75;65.05;78310.81;5134914;27;19915;-73
2021/04/21 01:49:35;;;;;;;;;;;;;;;-142.75;65.08;78310.81;5134976;27;19915;-73
2021/04/21 01:52:15;;;;;;;;;;;;;;;-142.75;65.51;78314.75;5134476;27;20010;-74
2021/04/21 01:54:43;;;;;;;;;;;;;;;-142.75;65.03;78326.56;5116357;27;19911;-73
2021/04/21 01:57:11;;;;;;;;;;;;;;;-142.75;65.42;78318.69;5134781;27;20388;-73
2021/04/21 01:59:55;;;;;;;;;;;;;;;-142.75;65.31;78320.66;5115917;27;19919;-73
2021/04/21 02:02:27;;;;;;;;;;;;;;;-142.75;65.11;78322.63;5116278;27;19957;-72
2021/04/21 02:04:56;;;;;;;;;;;;;;;-142.75;65.06;78318.69;5134491;27;20296;-73
2021/04/21 02:07:27;;;;;;;;;;;;;;;-142.75;65.13;78326.56;5134632;27;19911;-73
2021/04/21 02:09:57;;;;;;;;;;;;;;;-142.75;65.00;78324.59;5133599;27;19915;-72
2021/04/21 02:12:38;;;;;;;;;;;;;;;-142.75;65.76;78275.34;5134136;27;19911;-74
2021/04/21 02:15:22;;;;;;;;;;;;;;;-142.75;65.20;78239.91;5133999;27;20489;-74
2021/04/21 02:17:56;;;;;;;;;;;;;;;-142.75;64.47;78218.25;5134361;27;19915;-72
2021/04/21 02:20:35;;;;;;;;;;;;;;;-142.75;64.20;78204.47;5134288;27;20015;-72
2021/04/21 02:23:03;;;;;;;;;;;;;;;-142.75;63.85;78196.59;5115845;27;19918;-73
2021/04/21 02:25:41;;;;;;;;;;;;;;;-142.75;63.71;78184.78;5115619;27;19911;-73
2021/04/21 02:28:25;;;;;;;;;;;;;;;-142.75;63.23;78180.81;5134166;27;19911;-73
2021/04/21 02:31:02;;;;;;;;;;;;;;;-142.75;63.10;78180.81;5133638;27;20373;-72
2021/04/21 02:33:33;;;;;;;;;;;;;;;-142.75;62.79;78180.81;5134771;27;19921;-72
2021/04/21 02:36:01;;;;;;;;;;;;;;;-142.75;62.74;78178.84;5115275;27;19911;-74
2021/04/21 02:38:53;;;;;;;;;;;;;;;-142.75;62.63;78180.81;5134192;27;19912;-73
2021/04/21 02:41:21;;;;;;;;;;;;;;;-142.75;62.55;78182.81;5133730;27;19911;-73
2021/04/21 02:44:02;;;;;;;;;;;;;;;-142.75;62.61;78188.72;5133122;27;19911;-70
2021/04/21 02:46:35;;;;;;;;;;;;;;;-142.75;61.77;78180.81;5133741;27;19919;-73
2021/04/21 02:49:03;;;;;;;;;;;;;;;-142.75;61.70;78180.81;5133480;27;20373;-73
2021/04/21 02:51:43;;;;;;;;;;;;;;;-142.75;60.95;78188.72;5133447;27;19964;-72
2021/04/21 02:54:31;;;;;;;;;;;;;;;-142.75;60.80;78182.81;5133762;27;19956;-72
2021/04/21 02:57:00;;;;;;;;;;;;;;;-142.75;60.25;78186.75;5132780;27;20296;-73
2021/04/21 02:59:46;;;;;;;;;;;;;;;-142.75;59.94;78190.69;5133604;27;19977;-72
2021/04/21 03:02:14;;;;;;;;;;;;;;;-142.75;59.83;78192.66;5133518;27;19951;-73
2021/04/21 03:04:49;;;;;;;;;;;;;;;-142.75;60.13;78204.47;5133399;27;19930;-72
2021/04/21 03:07:18;;;;;;;;;;;;;;;-142.75;59.67;78200.53;5133258;27;19915;-73
2021/04/21 03:09:49;;;;;;;;;;;;;;;-142.75;59.79;78196.59;5114769;27;19958;-73
2021/04/21 03:12:18;;;;;;;;;;;;;;;-142.75;59.76;78202.50;5114555;27;19918;-72
2021/04/21 03:14:45;;;;;;;;;;;;;;;-142.75;59.88;78200.53;5132785;27;20391;-73
2021/04/21 03:17:12;;;;;;;;;;;;;;;-142.75;59.98;78198.56;5133156;27;19917;-72
2021/04/21 03:19:40;;;;;;;;;;;;;;;-142.75;59.91;78196.59;5114769;27;20388;-73
2021/04/21 03:22:18;;;;;;;;;;;;;;;-142.75;60.30;78204.47;5132574;27;19918;-72
2021/04/21 03:24:47;;;;;;;;;;;;;;;-142.75;60.65;78212.34;5133223;27;19965;-72
2021/04/21 03:27:13;;;;;;;;;;;;;;;-142.75;60.88;78212.34;5133063;27;19911;-72
2021/04/21 03:29:41;;;;;;;;;;;;;;;-142.75;61.18;78214.31;5132748;27;19915;-72
2021/04/21 03:32:19;;;;;;;;;;;;;;;-142.75;61.55;78216.28;5115053;27;20321;-73
2021/04/21 03:34:46;;;;;;;;;;;;;;;-142.75;61.96;78228.09;5132348;27;19920;-71
2021/04/21 03:37:21;;;;;;;;;;;;;;;-142.75;61.73;78220.22;5114354;27;19991;-73
2021/04/21 03:39:48;;;;;;;;;;;;;;;-142.75;62.02;78220.22;5114426;27;20341;-72
2021/04/21 03:42:13;;;;;;;;;;;;;;;-142.75;62.14;78220.22;5110702;27;19915;-72
2021/04/21 03:44:38;;;;;;;;;;;;;;;-142.75;62.45;78228.09;5132679;27;19918;-71
2021/04/21 03:47:04;;;;;;;;;;;;;;;-142.75;62.74;78237.94;5132508;27;19919;-72
2021/04/21 03:49:29;;;;;;;;;;;;;;;-142.75;62.89;78235.97;5132529;27;19919;-72
2021/04/21 03:51:55;;;;;;;;;;;;;;;-142.75;62.90;78234.00;5132195;27;20013;-72
2021/04/21 03:54:21;;;;;;;;;;;;;;;-142.75;62.79;78234.00;5131669;27;19919;-72
2021/04/21 03:56:46;;;;;;;;;;;;;;;-142.75;62.73;78235.97;5132221;27;19967;-72
2021/04/21 03:59:14;;;;;;;;;;;;;;;-142.75;62.98;78228.09;5114030;27;19912;-73
2021/04/21 04:01:40;;;;;;;;;;;;;;;-142.75;63.02;78237.94;5131927;27;19918;-72
2021/04/21 04:04:09;;;;;;;;;;;;;;;-142.75;63.05;78239.91;5128718;22;19977;-72
2021/04/21 04:06:37;;;;;;;;;;;;;;;-142.75;63.39;78247.78;5089172;28;19920;-71
2021/04/21 04:09:04;;;;;;;;;;;;;;;-142.75;63.52;78235.97;5090028;28;19962;-71
2021/04/21 04:11:32;;;;;;;;;;;;;;;-142.75;63.58;78247.78;5072839;28;19924;-73
2021/04/21 04:14:01;;;;;;;;;;;;;;;-142.75;63.51;78251.72;5072690;28;19919;-73
2021/04/21 04:16:27;;;;;;;;;;;;;;;-142.75;63.59;78243.84;5110359;28;20342;-72
2021/04/21 04:18:53;;;;;;;;;;;;;;;-142.75;63.54;78259.59;5103735;28;20377;-72
2021/04/21 04:21:18;;;;;;;;;;;;;;;-142.75;63.73;78269.44;5091735;28;19912;-70
2021/04/21 04:23:44;;;;;;;;;;;;;;;-142.75;64.06;78275.34;5093195;28;20392;-72
2021/04/21 04:26:11;;;;;;;;;;;;;;;-142.75;64.13;78269.44;5092809;28;19915;-71
2021/04/21 04:28:37;;;;;;;;;;;;;;;-142.75;64.04;78273.38;5102897;28;19919;-72
2021/04/21 04:31:03;;;;;;;;;;;;;;;-142.75;64.24;78273.38;5109538;28;19916;-72
2021/04/21 04:33:29;;;;;;;;;;;;;;;-142.75;64.29;78273.38;5093513;28;19919;-74
2021/04/21 04:35:55;;;;;;;;;;;;;;;-142.75;64.35;78273.38;5111001;28;20003;-72
2021/04/21 04:38:20;;;;;;;;;;;;;;;-142.75;64.19;78275.34;5111146;28;20006;-72
2021/04/21 04:40:45;;;;;;;;;;;;;;;-142.75;64.26;78277.31;5092716;28;20229;-73
2021/04/21 04:43:11;;;;;;;;;;;;;;;-142.75;64.12;78281.25;5092714;28;20360;-72
2021/04/21 04:45:37;;;;;;;;;;;;;;;-142.75;64.13;78279.28;5106159;28;19912;-72
2021/04/21 04:48:03;;;;;;;;;;;;;;;-142.75;64.31;78275.34;5090549;28;20373;-72
2021/04/21 04:50:29;;;;;;;;;;;;;;;-142.75;64.24;78275.34;5072137;28;19916;-72
2021/04/21 04:52:56;;;;;;;;;;;;;;;-142.75;64.19;78259.59;5072386;28;19916;-71
2021/04/21 04:55:22;;;;;;;;;;;;;;;-142.75;63.85;78271.41;5090650;28;20007;-71
2021/04/21 04:57:48;;;;;;;;;;;;;;;-142.75;63.81;78269.44;5090735;28;20002;-72
2021/04/21 05:00:15;;;;;;;;;;;;;;;-142.75;63.54;78267.47;5090815;28;19962;-72
2021/04/21 05:02:43;;;;;;;;;;;;;;;-142.75;63.26;78257.63;5110974;28;19916;-71
2021/04/21 05:05:09;;;;;;;;;;;;;;;-142.75;63.23;78259.59;5110509;28;19969;-72
2021/04/21 05:07:37;;;;;;;;;;;;;;;-142.75;63.30;78247.78;5096087;28;19998;-71
2021/04/21 05:10:04;;;;;;;;;;;;;;;-142.75;63.23;78247.78;5115033;28;19922;-71
2021/04/21 05:12:35;;;;;;;;;;;;;;;-142.75;63.05;78245.81;5114606;28;19915;-72
2021/04/21 05:15:01;;;;;;;;;;;;;;;-142.75;63.03;78235.97;5095932;28;19916;-73
2021/04/21 05:17:32;;;;;;;;;;;;;;;-142.75;62.74;78235.97;5102865;28;19934;-72
2021/04/21 05:20:23;;;;;;;;;;;;;;;-142.75;62.57;78220.22;5096714;28;19915;-73
2021/04/21 05:23:14;;;;;;;;;;;;;;;-142.75;62.22;78208.41;5102371;28;19912;-72
2021/04/21 05:25:39;;;;;;;;;;;;;;;-142.75;61.66;78192.66;5114781;28;20278;-72
2021/04/21 05:28:28;;;;;;;;;;;;;;;-142.75;61.31;78178.84;5094988;28;19957;-72
2021/04/21 05:30:53;;;;;;;;;;;;;;;-142.75;61.10;78167.03;5094143;28;20285;-72
2021/04/21 05:33:34;;;;;;;;;;;;;;;-142.75;61.01;78153.25;5079378;28;19965;-73
2021/04/21 05:36:11;;;;;;;;;;;;;;;-142.75;60.51;78141.44;5095288;28;19911;-72
2021/04/21 05:38:59;;;;;;;;;;;;;;;-142.75;60.57;78125.69;5094110;28;19916;-71
2021/04/21 05:41:42;;;;;;;;;;;;;;;-142.75;60.36;78100.09;5075790;28;20328;-71
2021/04/21 05:44:26;;;;;;;;;;;;;;;-142.75;59.28;78086.31;5078371;28;19912;-73
2021/04/21 05:47:01;;;;;;;;;;;;;;;-142.75;59.19;78082.38;5095952;28;20301;-73
2021/04/21 05:49:41;;;;;;;;;;;;;;;-142.75;59.51;78064.66;5096200;28;20307;-73
2021/04/21 05:52:25;;;;;;;;;;;;;;;-142.75;59.35;78066.63;5099741;28;20293;-72
2021/04/21 05:54:50;;;;;;;;;;;;;;;-142.75;59.35;78052.81;5075395;28;19955;-72
2021/04/21 05:57:36;;;;;;;;;;;;;;;-142.75;59.08;78041.00;5080022;28;19974;-71
2021/04/21 06:00:19;;;;;;;;;;;;;;;-142.75;58.55;78029.19;5075550;28;20408;-73
2021/04/21 06:02:45;;;;;;;;;;;;;;;-142.75;57.73;78003.59;5075677;28;20300;-74
2021/04/21 06:05:13;;;;;;;;;;;;;;;-142.75;57.60;77991.78;5075513;28;20006;-72
2021/04/21 06:07:38;;;;;;;;;;;;;;;-142.75;57.85;77995.72;5093559;28;19947;-72
2021/04/21 06:10:23;;;;;;;;;;;;;;;-142.75;57.20;77974.06;5105292;28;19962;-73
2021/04/21 06:12:57;;;;;;;;;;;;;;;-142.75;57.61;77960.28;5089120;28;19912;-72
2021/04/21 06:15:27;;;;;;;;;;;;;;;-142.75;57.10;77940.59;5077264;28;19911;-72
2021/04/21 06:17:56;;;;;;;;;;;;;;;-142.75;56.57;77899.22;5074236;28;19999;-73
2021/04/21 06:20:32;;;;;;;;;;;;;;;-142.75;56.04;77881.50;5093063;28;20007;-72
2021/04/21 06:22:58;;;;;;;;;;;;;;;-142.75;55.87;77873.63;5093388;28;19919;-70
2021/04/21 06:25:23;;;;;;;;;;;;;;;-142.75;56.06;77859.84;5075210;28;20571;-72
2021/04/21 06:27:48;;;;;;;;;;;;;;;-142.75;55.42;77838.19;5075081;28;19912;-72
2021/04/21 06:30:13;;;;;;;;;;;;;;;-142.75;55.42;77830.31;5077374;28;19915;-72
2021/04/21 06:32:39;;;;;;;;;;;;;;;-142.75;55.03;77788.97;5095110;28;19919;-72
2021/04/21 06:35:05;;;;;;;;;;;;;;;-142.75;54.41;77751.56;5113591;28;19907;-72
2021/04/21 06:37:30;;;;;;;;;;;;;;;-142.75;53.44;77708.22;5079579;28;19916;-72
2021/04/21 06:40:00;;;;;;;;;;;;;;;-142.75;52.93;77660.97;5089145;28;19990;-74
2021/04/21 06:42:25;;;;;;;;;;;;;;;-142.75;53.16;77627.50;5094821;28;19918;-71
2021/04/21 06:44:50;;;;;;;;;;;;;;;-142.75;51.30;77558.59;5094933;28;20304;-71
2021/04/21 06:47:21;;;;;;;;;;;;;;;-142.75;50.43;77538.91;5094657;28;20345;-72
2021/04/21 06:50:04;;;;;;;;;;;;;;;-142.75;50.44;77523.16;5094908;28;19922;-71
2021/04/21 06:52:36;;;;;;;;;;;;;;;-142.75;50.22;77499.53;5112396;28;20342;-70
2021/04/21 06:55:08;;;;;;;;;;;;;;;-142.75;50.04;77485.75;5094554;28;19919;-71
2021/04/21 06:57:34;;;;;;;;;;;;;;;-142.75;50.14;77460.13;5093258;28;19916;-72
2021/04/21 07:00:11;;;;;;;;;;;;;;;-142.75;49.25;77405.00;5094557;28;20457;-72
2021/04/21 07:02:38;;;;;;;;;;;;;;;-142.75;48.57;77405.00;5094149;28;19922;-71
2021/04/21 07:05:04;;;;;;;;;;;;;;;-142.75;48.93;77424.69;5094187;28;19931;-71
2021/04/21 07:07:29;;;;;;;;;;;;;;;-142.75;49.10;77401.06;5094134;28;19912;-69
2021/04/21 07:09:55;;;;;;;;;;;;;;;-142.75;48.25;77355.78;5094408;28;19923;-71
2021/04/21 07:12:21;;;;;;;;;;;;;;;-142.75;48.15;77345.94;5112111;28;19927;-71
2021/04/21 07:14:48;;;;;;;;;;;;;;;-142.75;48.07;77334.13;5094029;28;19999;-71
2021/04/21 07:17:13;;;;;;;;;;;;;;;-142.75;48.06;77312.47;5094128;28;19965;-71
2021/04/21 07:19:39;;;;;;;;;;;;;;;-142.75;47.23;77251.44;5112325;28;19919;-73
2021/04/21 07:22:05;;;;;;;;;;;;;;;-142.75;47.09;77233.72;5112012;28;20412;-72
2021/04/21 07:24:34;;;;;;;;;;;;;;;-142.75;46.49;77212.06;5093971;28;20124;-71
2021/04/21 07:27:06;;;;;;;;;;;;;;;-142.75;47.45;77204.19;5111872;28;19968;-72
2021/04/21 07:29:31;;;;;;;;;;;;;;;-142.75;46.83;77129.38;5111810;27;19915;-72
2021/04/21 07:31:57;;;;;;;;;;;;;;;-142.75;44.99;77066.38;5092716;28;19912;-72
2021/04/21 07:34:40;;;;;;;;;;;;;;;-142.75;44.82;77019.13;5093158;28;19911;-72
2021/04/21 07:37:05;;;;;;;;;;;;;;;-142.75;44.67;77048.66;5092806;28;19915;-73
2021/04/21 07:39:31;;;;;;;;;;;;;;;-142.75;44.96;77007.31;5093150;28;20441;-72
2021/04/21 07:41:57;;;;;;;;;;;;;;;-142.75;43.78;76969.91;5110758;28;19954;-74
2021/04/21 07:44:51;;;;;;;;;;;;;;;-142.75;43.37;76954.16;5092835;28;19962;-72
2021/04/21 07:47:17;;;;;;;;;;;;;;;-142.75;43.97;76991.56;5092726;28;19922;-71
2021/04/21 07:49:48;;;;;;;;;;;;;;;-142.75;43.51;76958.09;5092136;28;20014;-72
2021/04/21 07:52:21;;;;;;;;;;;;;;;-142.75;43.84;76926.59;5091535;28;20417;-72
2021/04/21 07:54:46;;;;;;;;;;;;;;;-142.75;42.40;76889.19;5091684;28;19919;-73
2021/04/21 07:57:16;;;;;;;;;;;;;;;-142.75;42.31;76893.13;5092076;28;19912;-72
2021/04/21 07:59:43;;;;;;;;;;;;;;;-142.75;42.41;76869.50;5092899;28;19946;-74
2021/04/21 08:02:15;;;;;;;;;;;;;;;-142.75;41.30;76845.88;5090792;28;19919;-72
2021/04/21 08:04:50;;;;;;;;;;;;;;;-142.75;41.02;76806.50;5090383;28;19916;-71
2021/04/21 08:07:36;;;;;;;;;;;;;;;-142.75;39.57;76733.69;5072466;28;19960;-71
2021/04/21 08:10:03;;;;;;;;;;;;;;;-142.75;39.37;76721.88;5075364;28;19938;-75
2021/04/21 08:12:30;;;;;;;;;;;;;;;-142.75;39.74;76708.09;5091987;28;20010;-72
2021/04/21 08:14:59;;;;;;;;;;;;;;;-142.75;40.09;76639.19;5092274;28;19912;-73
2021/04/21 08:17:25;;;;;;;;;;;;;;;-142.75;38.51;76666.75;5092465;28;19964;-71
2021/04/21 08:19:55;;;;;;;;;;;;;;;-142.75;38.92;76570.28;5092311;28;19994;-73
2021/04/21 08:22:23;;;;;;;;;;;;;;;-142.75;38.09;76534.84;5092523;28;19972;-71
2021/04/21 08:24:48;;;;;;;;;;;;;;;-142.75;36.99;76542.72;5110807;28;19918;-70
2021/04/21 08:27:14;;;;;;;;;;;;;;;-142.75;37.87;76586.03;5092813;28;20289;-71
2021/04/21 08:29:40;;;;;;;;;;;;;;;-142.75;37.92;76586.03;5092590;28;20084;-71
2021/04/21 08:32:06;;;;;;;;;;;;;;;-142.75;37.98;76617.53;5092461;28;19916;-71
2021/04/21 08:34:32;;;;;;;;;;;;;;;-142.75;37.89;76625.41;5110910;28;20414;-71
2021/04/21 08:36:57;;;;;;;;;;;;;;;-142.75;39.06;76635.25;5109466;28;19972;-68
2021/04/21 08:39:22;;;;;;;;;;;;;;;-142.75;38.41;76609.66;5092478;28;19912;-70
2021/04/21 08:41:51;;;;;;;;;;;;;;;-142.75;38.33;76588.00;5109999;28;19911;-70
2021/04/21 08:44:18;;;;;;;;;;;;;;;-142.75;38.33;76629.34;5092655;28;20326;-71
2021/04/21 08:46:43;;;;;;;;;;;;;;;-142.75;38.62;76588.00;5092571;28;19918;-71
2021/04/21 08:49:10;;;;;;;;;;;;;;;-142.75;38.07;76617.53;5110658;28;19912;-71
2021/04/21 08:51:36;;;;;;;;;;;;;;;-142.75;37.81;76607.69;5110259;28;19915;-71
2021/04/21 08:54:05;;;;;;;;;;;;;;;-142.75;37.02;76560.44;5110494;28;19918;-71
2021/04/21 08:56:32;;;;;;;;;;;;;;;-142.75;37.43;76595.88;5078439;28;19915;-72
2021/04/21 08:58:57;;;;;;;;;;;;;;;-142.75;38.24;76617.53;5072121;28;19939;-71
2021/04/21 09:01:23;;;;;;;;;;;;;;;-142.75;38.56;76601.78;5088256;28;19919;-69
2021/04/21 09:03:49;;;;;;;;;;;;;;;-142.75;38.06;76593.91;5110338;28;19912;-70
2021/04/21 09:06:15;;;;;;;;;;;;;;;-142.75;37.66;76574.22;5110726;28;20469;-70
2021/04/21 09:08:41;;;;;;;;;;;;;;;-142.75;37.48;76558.47;5086299;28;19915;-72
2021/04/21 09:11:06;;;;;;;;;;;;;;;-142.75;37.67;76542.72;5089906;28;19923;-71
2021/04/21 09:13:32;;;;;;;;;;;;;;;-142.75;36.45;76460.06;5090034;28;20013;-71
2021/04/21 09:15:57;;;;;;;;;;;;;;;-142.75;37.46;76499.44;5090177;28;19912;-73
2021/04/21 09:18:24;;;;;;;;;;;;;;;-142.75;36.74;76507.31;5090123;28;19942;-72
2021/04/21 09:20:49;;;;;;;;;;;;;;;-142.75;38.27;76745.50;5089671;28;20365;-71
2021/04/21 09:23:14;;;;;;;;;;;;;;;-142.75;39.54;76796.69;5090065;28;19926;-72
2021/04/21 09:25:40;;;;;;;;;;;;;;;-142.75;40.19;76800.63;5089611;28;19923;-73
2021/04/21 09:28:05;;;;;;;;;;;;;;;-142.75;40.55;76867.53;5090082;28;19912;-72
2021/04/21 09:30:31;;;;;;;;;;;;;;;-142.75;41.37;76969.91;5089676;28;20331;-72
2021/04/21 09:32:57;;;;;;;;;;;;;;;-142.75;42.44;76971.88;5071703;28;19934;-72
2021/04/21 09:35:25;;;;;;;;;;;;;;;-142.75;41.57;76832.09;5090193;28;20289;-72
2021/04/21 09:37:54;;;;;;;;;;;;;;;-142.75;39.64;76765.19;5072001;28;20432;-71
2021/04/21 09:40:38;;;;;;;;;;;;;;;-142.75;40.68;76812.41;5089743;28;20270;-70
2021/04/21 09:43:04;;;;;;;;;;;;;;;-142.75;40.82;76806.50;5089920;28;19998;-73
2021/04/21 09:45:33;;;;;;;;;;;;;;;-142.75;39.39;76700.22;5071601;28;19950;-72
2021/04/21 09:48:09;;;;;;;;;;;;;;;-142.75;38.72;76712.03;5071679;28;20333;-71
2021/04/21 09:50:36;;;;;;;;;;;;;;;-142.75;40.82;76873.44;5100506;28;19916;-70
2021/04/21 09:53:16;;;;;;;;;;;;;;;-142.75;41.48;76938.41;5112106;28;20010;-72
2021/04/21 09:55:41;;;;;;;;;;;;;;;-142.75;41.26;76790.78;5094948;28;20010;-71
2021/04/21 09:58:06;;;;;;;;;;;;;;;-142.75;41.01;76885.25;5113483;28;20338;-70
2021/04/21 10:00:38;;;;;;;;;;;;;;;-142.75;41.82;77027.00;5095745;28;20007;-71
2021/04/21 10:03:14;;;;;;;;;;;;;;;-142.75;44.32;77141.19;5092708;28;20357;-71
2021/04/21 10:05:39;;;;;;;;;;;;;;;-142.75;44.89;77153.00;5091987;28;20381;-71
2021/04/21 10:08:11;;;;;;;;;;;;;;;-142.75;44.62;77196.31;5073970;28;19947;-72
2021/04/21 10:10:37;;;;;;;;;;;;;;;-142.75;45.73;77239.63;5092338;28;19919;-72
2021/04/21 10:13:16;;;;;;;;;;;;;;;-142.75;45.93;77294.75;5092803;28;19980;-71
2021/04/21 10:15:42;;;;;;;;;;;;;;;-142.75;46.29;77302.63;5091365;28;19916;-70
2021/04/21 10:18:08;;;;;;;;;;;;;;;-142.75;46.33;77300.66;5092824;28;19912;-71
2021/04/21 10:20:34;;;;;;;;;;;;;;;-142.75;47.14;77277.03;5092891;28;20429;-70
2021/04/21 10:22:59;;;;;;;;;;;;;;;-142.75;46.68;77302.63;5074657;28;19999;-71
2021/04/21 10:25:25;;;;;;;;;;;;;;;-142.75;47.74;77320.34;5074895;28;20397;-71
2021/04/21 10:27:51;;;;;;;;;;;;;;;-142.75;47.52;77302.63;5092940;28;20438;-70
2021/04/21 10:30:16;;;;;;;;;;;;;;;-142.75;46.81;77275.06;5092868;28;19916;-71
2021/04/21 10:32:42;;;;;;;;;;;;;;;-142.75;46.67;77286.88;5092548;28;19916;-69
2021/04/21 10:35:07;;;;;;;;;;;;;;;-142.75;46.46;77296.72;5092878;28;20042;-73
2021/04/21 10:37:33;;;;;;;;;;;;;;;-142.75;46.36;77294.75;5074777;28;19968;-73
2021/04/21 10:39:59;;;;;;;;;;;;;;;-142.75;46.87;77326.25;5076055;28;20053;-74
2021/04/21 10:42:24;;;;;;;;;;;;;;;-142.75;46.86;77361.69;5104964;28;20409;-72
2021/04/21 10:44:51;;;;;;;;;;;;;;;-142.75;47.60;77371.53;5074349;28;19931;-71
2021/04/21 10:47:17;;;;;;;;;;;;;;;-142.75;47.33;77428.63;5092588;28;20423;-71
2021/04/21 10:49:56;;;;;;;;;;;;;;;-142.75;47.70;77430.59;5077104;28;20126;-71
2021/04/21 10:52:23;;;;;;;;;;;;;;;-142.75;48.53;77450.28;5092237;28;19923;-73
2021/04/21 10:54:50;;;;;;;;;;;;;;;-142.75;49.11;77475.91;5092279;28;20304;-72
2021/04/21 10:57:21;;;;;;;;;;;;;;;-142.75;48.55;77507.41;5073968;28;19919;-72
2021/04/21 11:00:06;;;;;;;;;;;;;;;-142.75;49.59;77527.09;5092542;28;19920;-72
2021/04/21 11:02:42;;;;;;;;;;;;;;;-142.75;50.27;77546.78;5074107;28;19916;-71
2021/04/21 11:05:08;;;;;;;;;;;;;;;-142.75;50.01;77560.56;5091888;28;19990;-72
2021/04/21 11:07:34;;;;;;;;;;;;;;;-142.75;49.99;77562.53;5091975;28;19961;-72
2021/04/21 11:09:59;;;;;;;;;;;;;;;-142.75;49.75;77570.41;5074119;28;20355;-72
2021/04/21 11:12:43;;;;;;;;;;;;;;;-142.75;50.09;77570.41;5091810;28;19912;-72
2021/04/21 11:15:08;;;;;;;;;;;;;;;-142.75;49.85;77594.03;5095727;28;20282;-71
2021/04/21 11:17:53;;;;;;;;;;;;;;;-142.75;50.83;77613.72;5112464;28;19930;-71
2021/04/21 11:20:37;;;;;;;;;;;;;;;-142.75;50.72;77617.66;5095875;28;19919;-70
2021/04/21 11:23:03;;;;;;;;;;;;;;;-142.75;51.15;77623.56;5113181;28;19994;-71
2021/04/21 11:25:29;;;;;;;;;;;;;;;-142.75;50.16;77625.53;5094780;28;20018;-71
2021/04/21 11:27:56;;;;;;;;;;;;;;;-142.75;50.42;77584.19;5113159;28;20007;-72
2021/04/21 11:30:36;;;;;;;;;;;;;;;-142.75;49.30;77578.28;5112853;28;20292;-70
2021/04/21 11:33:02;;;;;;;;;;;;;;;-142.75;49.06;77546.78;5112882;28;19926;-71
2021/04/21 11:35:28;;;;;;;;;;;;;;;-142.75;48.03;77477.88;5113082;28;19911;-72
2021/04/21 11:37:53;;;;;;;;;;;;;;;-142.75;47.42;77442.41;5112750;28;19919;-72
2021/04/21 11:40:26;;;;;;;;;;;;;;;-142.75;46.76;77436.50;5094557;28;20295;-72
2021/04/21 11:42:52;;;;;;;;;;;;;;;-142.75;46.67;77424.69;5094531;28;19930;-72
2021/04/21 11:45:19;;;;;;;;;;;;;;;-142.75;45.65;77418.78;5112702;28;19915;-70
2021/04/21 11:47:49;;;;;;;;;;;;;;;-142.75;46.18;77412.88;5094382;28;19911;-72
2021/04/21 11:50:17;;;;;;;;;;;;;;;-142.75;46.09;77464.09;5112743;28;19915;-72
2021/04/21 11:52:50;;;;;;;;;;;;;;;-142.75;46.91;77513.31;5112320;28;19911;-72
2021/04/21 11:55:20;;;;;;;;;;;;;;;-142.75;47.59;77525.13;5111887;28;19911;-71
2021/04/21 11:57:53;;;;;;;;;;;;;;;-142.75;47.19;77536.94;5073855;28;19912;-71
2021/04/21 12:00:29;;;;;;;;;;;;;;;-142.75;47.17;77523.16;5073833;28;19955;-72
2021/04/21 12:02:55;;;;;;;;;;;;;;;-142.75;47.52;77460.13;5091765;28;19930;-73
2021/04/21 12:05:21;;;;;;;;;;;;;;;-142.75;45.54;77408.94;5109870;28;19919;-71
2021/04/21 12:07:47;;;;;;;;;;;;;;;-142.75;44.99;77361.69;5112329;28;19954;-71
2021/04/21 12:10:12;;;;;;;;;;;;;;;-142.75;46.13;77314.44;5112280;28;19958;-70
2021/04/21 12:12:38;;;;;;;;;;;;;;;-142.75;45.06;77326.25;5112063;28;19969;-72
2021/04/21 12:15:04;;;;;;;;;;;;;;;-142.75;46.18;77326.25;5111816;28;20289;-73
2021/04/21 12:17:29;;;;;;;;;;;;;;;-142.75;45.40;77314.44;5093446;28;19923;-72
2021/04/21 12:19:55;;;;;;;;;;;;;;;-142.75;44.27;77336.09;5112043;28;19916;-71
2021/04/21 12:22:20;;;;;;;;;;;;;;;-142.75;44.58;77334.13;5111851;28;19916;-72
2021/04/21 12:24:45;;;;;;;;;;;;;;;-142.75;44.90;77359.72;5112022;28;19950;-71
2021/04/21 12:27:27;;;;;;;;;;;;;;;-142.75;43.97;77391.22;5112090;28;19912;-72
2021/04/21 12:29:52;;;;;;;;;;;;;;;-142.75;45.24;77367.59;5111822;28;20014;-73
2021/04/21 12:32:27;;;;;;;;;;;;;;;-142.75;45.28;77351.84;5111576;28;20316;-71
2021/04/21 12:34:52;;;;;;;;;;;;;;;-142.75;44.29;77351.84;5107724;28;19958;-71
2021/04/21 12:37:21;;;;;;;;;;;;;;;-142.75;43.81;77334.13;5093672;28;19958;-72
2021/04/21 12:39:46;;;;;;;;;;;;;;;-142.75;44.59;77349.88;5093595;28;20437;-71
2021/04/21 12:42:15;;;;;;;;;;;;;;;-142.75;43.57;77363.66;5111372;28;19912;-71